Aérodrome :
LOGIN :

S'inscrire | Disclaimer

   EN    FR    IT 

 










Légende :    VFR   VFR Marginal   IFR   IFR Intensif   IFR Très Intensif
Visi : 
Plafond : 
>= 8 km
>= 3000ft
5 à 8 km
1000 à 3000 ft
1500m à 5 km
500 à 1000 ft
800 à 1500m
200 à 500 ft
< 800m
< 200 ft
Symboles :   Orages  Brouillard  Fortes neiges  Fortes précipitations  Vent > 20 kt
SIGMETs :   Divers  Orages  Givrage  Turbulence  Onde Orograph.  Cendres Volcan.







- Altitude de l'aérodrome : 37 ft
- Code IATA : OLB


LIEO - Olbia Costa Smeralda

DERNIER METAR :
  • 190520Z 25002KT CAVOK 06/06 Q1006

METARs EXPIRÉS :
  • 190450Z VRB02KT CAVOK 06/06 Q1006
  • 190420Z 29002KT CAVOK 06/06 Q1007
  • 190350Z VRB01KT CAVOK 06/06 Q1007
  • 190320Z 20002KT CAVOK 06/06 Q1008
  • 190250Z 28003KT CAVOK 06/06 Q1008

TAF TAF LIEO
Valide du 19 à 06h jusqu'au 20 à 06h UTC


190500Z 1906/2006 VRB04KT 9999 BKN030
BECMG 1906/1908 06010KT
TEMPO 1906/2006 RA
BECMG 1916/1918 VRB04KT
Pas de NOTAMs connus pour ce terrain.
1 SIGMET publié pour la FIR Roma (LIRR) :
 
Orages noyés dans la masse
LIRR SIGMET 1 VALID 190440/190640 LIIB
LIRR ROMA FIR EMBD TS FCST WI N4022 E00801 - N4031 E01529 - N3856 E01623 - N3852 E01742 - N3725 E01757 - N3800 E01444 - N3627 E01339 - N3630 E01129 - N3731 E01131 - N3859 E00758 - N4022 E00801 MOV N INTSF=



MET'MAP, la Météo Aéronautique d'un coup d'oeil ! - Copyright ORBIFLY Décembre 2007 - Disclaimer

ORBIFLY MET'MAP TEAM :

Programmation & Développement : Alexandra Zaïnal
Conception & Développement : Baudouin d'Aumeries
Co-Programmation & Développement : Marc-Olivier Méhu
Soutien technique & logistique : Manuel Goepfert

Contact : metmap@orbifly.com




SOURCES & CREDITS :

   NOAA